Time;durP1;ratioP1;P1;durP2;ratioP2;P2;SDS_P1;SDS_P2;PMS_P1;PMS_P2;Temp;Humidity;BMP_temperature;BMP_pressure;BME280_temperature;BME280_humidity;BME280_pressure;Samples;Min_cycle;Max_cycle;Signal;HPM_P1;HPM_P2
2022/11/21 00:01:28;;;;;;;5.20;2.30;;;;;;;6.92;100.00;98789.25;12200681;19;20011;-85
2022/11/21 00:05:49;;;;;;;9.00;2.78;;;;;;;6.90;100.00;98785.97;12217957;19;20039;-84
2022/11/21 00:09:51;;;;;;;8.63;2.70;;;;;;;6.92;100.00;98789.25;12198586;19;20027;-84
2022/11/21 00:14:15;;;;;;;9.20;2.50;;;;;;;6.96;100.00;98792.31;12219780;19;20038;-84
2022/11/21 00:18:35;;;;;;;9.48;2.30;;;;;;;6.97;100.00;98786.59;12196313;19;20015;-84
2022/11/21 00:23:09;;;;;;;6.38;2.70;;;;;;;6.99;100.00;98798.16;12164552;19;20540;-83
2022/11/21 00:27:10;;;;;;;11.45;3.72;;;;;;;6.99;100.00;98789.94;12258772;19;20042;-82
2022/11/21 00:31:21;;;;;;;9.75;2.63;;;;;;;6.95;100.00;98783.28;12277845;19;20007;-82
2022/11/21 00:35:23;;;;;;;6.97;2.58;;;;;;;6.90;100.00;98790.59;12238264;19;20546;-83
2022/11/21 00:39:25;;;;;;;9.30;2.55;;;;;;;6.87;100.00;98783.72;12203495;19;20023;-83
2022/11/21 00:43:26;;;;;;;7.20;2.83;;;;;;;6.82;100.00;98780.91;12222334;19;20039;-83
2022/11/21 00:47:29;;;;;;;8.55;2.47;;;;;;;6.73;100.00;98775.03;12222802;19;20438;-83
2022/11/21 00:51:30;;;;;;;7.85;2.90;;;;;;;6.70;100.00;98769.22;12199368;19;20010;-83
2022/11/21 00:55:32;;;;;;;7.50;3.20;;;;;;;6.69;100.00;98765.63;12220431;19;20042;-83
2022/11/21 00:59:38;;;;;;;10.50;3.00;;;;;;;6.73;100.00;98769.53;12220374;19;20071;-84
2022/11/21 01:04:00;;;;;;;10.43;2.92;;;;;;;6.80;100.00;98759.22;12142478;19;20031;-84
2022/11/21 01:08:05;;;;;;;8.98;2.83;;;;;;;6.82;100.00;98751.59;12220984;19;20021;-85
2022/11/21 01:12:27;;;;;;;12.77;2.88;;;;;;;6.82;100.00;98737.91;12194293;19;20061;-85
2022/11/21 01:16:34;;;;;;;12.43;3.30;;;;;;;6.80;100.00;98747.47;12219396;19;20014;-84
2022/11/21 01:20:39;;;;;;;12.77;3.78;;;;;;;6.79;100.00;98751.28;12214919;19;20011;-84
2022/11/21 01:24:41;;;;;;;12.93;2.88;;;;;;;6.78;100.00;98750.47;12198822;19;20022;-85
2022/11/21 01:28:43;;;;;;;10.20;2.33;;;;;;;6.82;100.00;98739.84;12222996;19;20014;-85
2022/11/21 01:32:48;;;;;;;8.40;2.70;;;;;;;6.83;100.00;98739.56;12222827;19;20007;-85
2022/11/21 01:36:50;;;;;;;6.20;3.03;;;;;;;6.84;100.00;98746.72;12193202;19;20028;-85
2022/11/21 01:41:01;;;;;;;8.48;3.17;;;;;;;6.91;100.00;98737.50;12218016;19;20380;-84
2022/11/21 01:45:42;;;;;;;13.05;3.00;;;;;;;6.92;100.00;98733.66;12210108;19;20038;-84
2022/11/21 01:49:46;;;;;;;6.65;2.30;;;;;;;6.84;100.00;98735.75;12218390;19;20031;-85
2022/11/21 01:54:00;;;;;;;12.30;4.95;;;;;;;6.73;100.00;98738.59;12214647;19;20010;-85
2022/11/21 01:58:02;;;;;;;9.27;2.58;;;;;;;6.64;100.00;98740.13;12196585;19;20010;-84
2022/11/21 02:02:07;;;;;;;11.93;2.55;;;;;;;6.53;100.00;98733.63;12216492;19;20024;-84
2022/11/21 02:06:11;;;;;;;10.57;2.42;;;;;;;6.46;100.00;98731.06;12193728;19;20019;-85
2022/11/21 02:10:14;;;;;;;8.15;2.90;;;;;;;6.37;100.00;98727.09;12217893;19;20343;-85
2022/11/21 02:14:17;;;;;;;11.00;3.35;;;;;;;6.33;100.00;98737.69;12214115;19;20003;-84
2022/11/21 02:18:18;;;;;;;7.53;2.23;;;;;;;6.27;100.00;98737.88;12195807;19;20011;-85
2022/11/21 02:22:37;;;;;;;14.05;2.60;;;;;;;6.27;100.00;98748.81;12211576;19;20243;-85
2022/11/21 02:26:40;;;;;;;7.47;2.40;;;;;;;6.22;100.00;98749.56;12215711;19;20422;-84
2022/11/21 02:30:42;;;;;;;;;;;;;;;6.23;100.00;98734.81;12197893;19;20362;-84
2022/11/21 02:34:44;;;;;;;9.85;2.97;;;;;;;6.23;100.00;98742.19;12214699;19;19927;-84
2022/11/21 02:38:45;;;;;;;8.20;2.40;;;;;;;6.22;100.00;98738.63;12214084;19;20031;-84
2022/11/21 02:43:02;;;;;;;11.55;2.72;;;;;;;6.20;100.00;98738.03;12192261;19;20011;-85
2022/11/21 02:47:03;;;;;;;13.18;3.00;;;;;;;6.17;100.00;98738.53;12210040;19;20010;-84
2022/11/21 02:51:05;;;;;;;11.07;2.70;;;;;;;6.12;100.00;98731.06;12198520;19;20021;-84
2022/11/21 02:55:08;;;;;;;10.68;2.70;;;;;;;6.07;100.00;98732.91;12210775;19;20034;-85
2022/11/21 02:59:09;;;;;;;10.05;2.83;;;;;;;6.01;100.00;98729.25;12216087;19;20027;-84
2022/11/21 03:03:11;;;;;;;14.80;3.13;;;;;;;5.97;100.00;98743.63;12186015;19;21062;-85
2022/11/21 03:07:13;;;;;;;9.68;2.53;;;;;;;5.92;100.00;98747.91;12211590;19;20016;-84
2022/11/21 03:11:15;;;;;;;11.57;2.83;;;;;;;5.86;100.00;98743.44;12212587;19;20002;-85
2022/11/21 03:15:16;;;;;;;10.10;2.75;;;;;;;5.82;100.00;98735.94;12186598;19;20127;-84
2022/11/21 03:19:18;;;;;;;9.65;2.50;;;;;;;5.79;100.00;98739.19;12208268;19;20094;-85
2022/11/21 03:23:19;;;;;;;10.10;2.75;;;;;;;5.73;100.00;98738.25;12210041;19;20035;-84
2022/11/21 03:27:21;;;;;;;10.30;2.45;;;;;;;5.71;100.00;98743.13;12186054;19;20018;-85
2022/11/21 03:31:23;;;;;;;8.05;3.08;;;;;;;5.69;100.00;98742.56;12209681;19;20006;-85
2022/11/21 03:35:26;;;;;;;9.32;3.00;;;;;;;5.65;100.00;98744.94;12202448;19;20018;-85
2022/11/21 03:39:30;;;;;;;11.73;2.63;;;;;;;5.61;100.00;98751.97;12188038;19;20349;-85
2022/11/21 03:43:32;;;;;;;14.63;3.55;;;;;;;5.65;100.00;98755.03;12206168;19;20010;-85
2022/11/21 03:47:33;;;;;;;13.20;3.50;;;;;;;5.72;100.00;98766.66;12210211;19;20006;-85
2022/11/21 03:51:36;;;;;;;17.65;3.20;;;;;;;5.84;100.00;98767.44;12186854;19;20314;-84
2022/11/21 03:55:38;;;;;;;11.57;2.85;;;;;;;5.90;100.00;98769.19;12210654;19;20118;-84
2022/11/21 03:59:40;;;;;;;8.63;3.45;;;;;;;5.99;100.00;98763.38;12208116;19;20011;-84
2022/11/21 04:03:42;;;;;;;11.60;3.72;;;;;;;6.10;100.00;98760.56;12185662;19;20540;-83
2022/11/21 04:07:44;;;;;;;7.97;2.70;;;;;;;6.19;100.00;98761.00;12210530;19;20377;-83
2022/11/21 04:11:46;;;;;;;5.82;2.58;;;;;;;6.27;100.00;98760.56;12207768;19;20311;-84
2022/11/21 04:15:47;;;;;;;10.48;2.75;;;;;;;6.32;100.00;98763.41;12186442;19;20039;-84
2022/11/21 04:19:49;;;;;;;5.90;2.20;;;;;;;6.39;100.00;98760.50;12206057;19;20507;-85
2022/11/21 04:23:51;;;;;;;7.63;2.17;;;;;;;6.44;100.00;98757.84;12206699;19;20021;-85
2022/11/21 04:28:02;;;;;;;12.57;2.72;;;;;;;6.50;100.00;98764.25;12186763;19;20006;-83
2022/11/21 04:32:06;;;;;;;8.02;2.53;;;;;;;6.50;100.00;98758.78;12237187;19;20018;-83
2022/11/21 04:36:13;;;;;;;8.68;2.33;;;;;;;6.49;100.00;98757.13;12220490;19;20492;-84
2022/11/21 04:40:16;;;;;;;7.30;2.60;;;;;;;6.45;100.00;98761.41;12225863;19;20007;-84
2022/11/21 04:44:17;;;;;;;6.95;2.47;;;;;;;6.44;100.00;98765.25;12223791;19;20014;-84
2022/11/21 04:48:19;;;;;;;9.65;2.65;;;;;;;6.42;100.00;98749.06;12205537;19;20011;-85
2022/11/21 04:52:21;;;;;;;6.30;2.28;;;;;;;6.34;100.00;98755.78;12226428;19;20057;-85
2022/11/21 04:56:23;;;;;;;10.25;2.58;;;;;;;6.34;100.00;98755.78;12223646;19;20010;-85
2022/11/21 05:00:25;;;;;;;11.55;3.47;;;;;;;6.37;100.00;98749.81;12202703;19;20020;-84
2022/11/21 05:04:29;;;;;;;6.15;2.78;;;;;;;6.44;100.00;98763.31;12219156;19;20007;-85
2022/11/21 05:08:34;;;;;;;10.35;2.35;;;;;;;6.49;100.00;98754.38;12218658;19;20035;-85
2022/11/21 05:16:56;;;;;;;6.03;2.13;;;;;;;6.63;100.00;98766.63;12219150;19;20007;-84
2022/11/21 05:20:57;;;;;;;5.93;2.75;;;;;;;6.68;100.00;98754.94;12220840;19;20031;-85
2022/11/21 05:24:59;;;;;;;4.68;2.30;;;;;;;6.72;100.00;98756.09;12195881;19;20023;-84
2022/11/21 05:29:01;;;;;;;7.45;2.30;;;;;;;6.68;100.00;98750.28;12219797;19;21756;-84
2022/11/21 05:33:03;;;;;;;6.55;2.40;;;;;;;6.67;100.00;98762.34;12220905;19;20121;-83
2022/11/21 05:37:05;;;;;;;4.70;1.33;;;;;;;6.72;100.00;98750.63;12196702;19;20038;-84
2022/11/21 05:41:06;;;;;;;4.35;1.70;;;;;;;6.76;100.00;98746.31;12216155;19;20099;-85
2022/11/21 05:45:09;;;;;;;7.07;2.05;;;;;;;6.81;100.00;98747.22;12193875;19;20034;-85
2022/11/21 05:49:11;;;;;;;6.60;1.83;;;;;;;6.85;100.00;98734.69;12219094;19;20035;-85
2022/11/21 05:53:13;;;;;;;6.27;1.60;;;;;;;6.89;100.00;98740.47;12213368;19;20043;-84
2022/11/21 05:57:15;;;;;;;3.75;1.92;;;;;;;6.91;100.00;98737.50;12193679;19;20002;-85
2022/11/21 06:03:25;;;;;;;8.88;1.63;;;;;;;6.92;100.00;98742.69;12217068;19;20006;-85
2022/11/21 06:05:38;;;;;;;5.35;1.60;;;;;;;6.81;100.00;98749.97;12215013;19;20003;-86
2022/11/21 06:09:40;;;;;;;8.02;2.30;;;;;;;6.74;100.00;98745.72;12193853;19;20496;-85
2022/11/21 06:13:42;;;;;;;5.13;1.73;;;;;;;6.64;100.00;98754.63;12210749;19;20121;-85
2022/11/21 06:17:43;;;;;;;3.28;1.65;;;;;;;6.57;100.00;98745.72;12205307;19;20321;-85
2022/11/21 06:21:45;;;;;;;5.13;1.55;;;;;;;6.50;100.00;98754.13;12171007;19;20003;-84
2022/11/21 06:25:47;;;;;;;3.22;1.20;;;;;;;6.44;100.00;98752.38;12215794;19;20007;-84
2022/11/21 06:29:48;;;;;;;5.35;1.80;;;;;;;6.38;100.00;98750.63;12208641;19;20364;-85
2022/11/21 06:33:55;;;;;;;4.35;1.40;;;;;;;6.36;100.00;98756.34;12195405;19;20007;-84
2022/11/21 06:37:57;;;;;;;2.40;1.35;;;;;;;6.41;100.00;98760.25;12219652;19;20448;-84
2022/11/21 06:42:00;;;;;;;2.75;1.20;;;;;;;6.50;100.00;98765.06;12217640;19;20677;-84
2022/11/21 06:46:03;;;;;;;;;;;;;;;6.55;100.00;98767.06;12198376;19;20006;-84
2022/11/21 06:50:05;;;;;;;2.50;1.20;;;;;;;6.59;100.00;98769.03;12219104;19;20014;-83
2022/11/21 06:54:07;;;;;;;4.57;1.20;;;;;;;6.68;100.00;98774.09;12237916;19;20018;-85
2022/11/21 06:58:15;;;;;;;3.33;1.48;;;;;;;6.78;100.00;98769.63;12278371;19;20285;-85
2022/11/21 07:02:17;;;;;;;6.35;1.63;;;;;;;6.85;100.00;98770.28;12259417;19;20018;-84
2022/11/21 07:06:18;;;;;;;1.92;1.00;;;;;;;6.92;100.00;98770.09;12199239;19;20014;-84
2022/11/21 07:10:20;;;;;;;4.63;1.33;;;;;;;6.98;100.00;98771.00;12217080;19;20010;-84
2022/11/21 07:14:22;;;;;;;4.72;1.50;;;;;;;7.05;100.00;98763.44;12220168;19;20339;-84
2022/11/21 07:18:25;;;;;;;3.33;1.40;;;;;;;7.12;100.00;98772.31;12198278;19;20035;-85
2022/11/21 07:22:27;;;;;;;4.15;1.80;;;;;;;7.18;100.00;98774.03;12218166;19;20047;-85
2022/11/21 07:26:28;;;;;;;2.65;1.23;;;;;;;7.22;100.00;98777.91;12219146;19;20374;-84
2022/11/21 07:30:30;;;;;;;3.20;1.48;;;;;;;7.30;100.00;98772.00;12195335;19;20027;-84
2022/11/21 07:34:32;;;;;;;3.50;1.55;;;;;;;7.39;100.00;98777.88;12214540;19;20480;-84
2022/11/21 07:38:34;;;;;;;3.67;1.60;;;;;;;7.50;100.00;98778.84;12217529;19;20121;-84
2022/11/21 07:42:36;;;;;;;3.83;1.60;;;;;;;7.58;100.00;98777.53;12191893;19;20364;-84
2022/11/21 07:46:38;;;;;;;5.82;1.63;;;;;;;7.62;100.00;98786.94;12211972;19;20006;-84
2022/11/21 07:50:39;;;;;;;5.22;1.30;;;;;;;7.65;100.00;98789.16;12214737;19;20024;-84
2022/11/21 07:54:41;;;;;;;4.45;2.00;;;;;;;7.74;100.00;98779.41;12193388;19;20475;-83
2022/11/21 07:58:42;;;;;;;4.68;1.90;;;;;;;7.69;100.00;98788.38;12213953;19;20010;-84
2022/11/21 08:02:45;;;;;;;4.65;1.98;;;;;;;7.69;100.00;98774.66;12213761;19;20027;-83
2022/11/21 08:06:46;;;;;;;8.40;2.10;;;;;;;7.79;100.00;98784.09;12190782;19;20560;-83
2022/11/21 08:10:50;;;;;;;6.60;2.05;;;;;;;7.90;100.00;98777.66;12214590;19;20354;-84
2022/11/21 08:14:53;;;;;;;5.78;2.30;;;;;;;8.02;100.00;98774.75;12210809;19;20020;-83
2022/11/21 08:18:55;;;;;;;7.50;2.60;;;;;;;8.15;100.00;98779.81;12195822;19;20376;-83
2022/11/21 08:22:57;;;;;;;4.85;2.17;;;;;;;8.18;100.00;98791.13;12221384;19;20015;-84
2022/11/21 08:26:59;;;;;;;5.55;2.30;;;;;;;8.34;100.00;98783.84;12222030;19;20060;-84
2022/11/21 08:31:05;;;;;;;9.13;2.80;;;;;;;8.49;100.00;98785.13;12199776;19;20023;-83
2022/11/21 08:35:15;;;;;;;6.40;2.25;;;;;;;8.50;100.00;98787.59;12166388;19;20023;-84
2022/11/21 08:39:16;;;;;;;5.93;2.05;;;;;;;8.62;100.00;98779.19;12225720;19;20027;-84
2022/11/21 08:43:18;;;;;;;7.93;2.05;;;;;;;8.88;100.00;98771.97;12220357;19;20017;-84
2022/11/21 08:47:20;;;;;;;5.47;2.20;;;;;;;9.09;100.00;98765.50;12220798;19;20014;-84
2022/11/21 08:51:21;;;;;;;9.35;2.45;;;;;;;9.16;100.00;98759.78;12202285;19;20019;-84
2022/11/21 08:55:23;;;;;;;4.45;1.98;;;;;;;9.17;100.00;98752.38;12222326;19;20095;-84
2022/11/21 08:59:28;;;;;;;4.28;1.98;;;;;;;9.07;100.00;98759.47;12222328;19;20038;-84
2022/11/21 09:03:30;;;;;;;5.93;1.95;;;;;;;9.04;100.00;98772.88;12200211;19;20366;-83
2022/11/21 09:07:32;;;;;;;8.03;2.63;;;;;;;9.02;100.00;98762.16;12223642;19;20098;-83
2022/11/21 09:11:35;;;;;;;6.25;1.73;;;;;;;9.00;100.00;98767.09;12244940;19;20034;-83
2022/11/21 09:19:58;;;;;;;4.63;2.00;;;;;;;8.81;100.00;98757.63;12224493;19;20006;-83
2022/11/21 09:23:59;;;;;;;9.48;2.28;;;;;;;8.67;100.00;98755.34;12221581;19;20018;-83
2022/11/21 09:28:09;;;;;;;6.30;2.70;;;;;;;8.63;100.00;98753.38;12206345;19;20015;-83
2022/11/21 09:32:11;;;;;;;8.75;2.10;;;;;;;8.72;100.00;98750.97;12270290;19;20003;-83
2022/11/21 09:36:13;;;;;;;3.60;1.63;;;;;;;8.86;100.00;98758.50;12220450;19;20010;-84
2022/11/21 09:40:17;;;;;;;5.75;1.63;;;;;;;8.90;100.00;98753.31;12227979;19;20010;-84
2022/11/21 09:44:28;;;;;;;3.83;1.30;;;;;;;8.97;100.00;98755.81;12221500;19;20010;-83
2022/11/21 09:48:57;;;;;;;5.32;2.00;;;;;;;9.13;100.00;98752.91;12203734;19;20022;-83
2022/11/21 09:53:19;;;;;;;5.10;1.60;;;;;;;9.31;100.00;98748.88;12223255;19;20523;-83
2022/11/21 09:57:24;;;;;;;4.65;1.50;;;;;;;9.54;100.00;98744.00;12201318;19;20437;-84
2022/11/21 10:01:32;;;;;;;5.30;1.40;;;;;;;9.73;100.00;98738.84;12219496;19;20010;-84
2022/11/21 10:05:40;;;;;;;4.60;1.52;;;;;;;10.01;100.00;98732.84;12221255;19;20039;-83
2022/11/21 10:09:57;;;;;;;5.45;1.08;;;;;;;10.01;100.00;98729.28;12198657;19;20796;-83
2022/11/21 10:14:26;;;;;;;6.03;1.40;;;;;;;9.83;100.00;98733.38;12212172;19;20030;-83
2022/11/21 10:18:54;;;;;;;4.40;1.55;;;;;;;9.73;100.00;98720.44;12198300;19;20479;-83
2022/11/21 10:23:27;;;;;;;3.65;1.08;;;;;;;9.52;100.00;98710.47;12218135;19;20072;-84
2022/11/21 10:27:37;;;;;;;2.90;1.10;;;;;;;9.40;100.00;98710.69;12196090;19;20532;-84
2022/11/21 10:31:41;;;;;;;4.43;1.83;;;;;;;9.53;100.00;98712.94;12220185;19;20007;-83
2022/11/21 10:35:47;;;;;;;2.95;1.10;;;;;;;9.49;100.00;98702.75;12214920;19;20520;-85
2022/11/21 10:39:50;;;;;;;3.10;1.40;;;;;;;9.52;100.00;98704.97;12195618;19;20014;-83
2022/11/21 10:48:34;;;;;;;2.92;1.35;;;;;;;9.85;98.70;98698.16;12203434;19;20341;-83
2022/11/21 10:53:01;;;;;;;3.78;1.13;;;;;;;9.74;97.81;98679.97;12227559;19;20002;-84
2022/11/21 10:57:16;;;;;;;2.85;1.13;;;;;;;9.45;97.58;98677.69;12217798;19;20042;-84
2022/11/21 11:01:29;;;;;;;4.15;1.08;;;;;;;9.46;99.23;98662.03;12198257;19;20003;-84
2022/11/21 11:05:40;;;;;;;3.90;1.15;;;;;;;9.46;99.62;98660.13;12217286;19;20011;-83
2022/11/21 11:09:46;;;;;;;3.67;1.42;;;;;;;9.63;99.85;98650.78;12196985;19;20006;-84
2022/11/21 11:14:03;;;;;;;2.20;1.02;;;;;;;9.91;98.70;98647.53;12217530;19;20011;-84
2022/11/21 11:18:12;;;;;;;2.50;1.00;;;;;;;10.23;97.16;98638.16;12222054;19;20022;-83
2022/11/21 11:22:27;;;;;;;3.13;1.13;;;;;;;10.62;93.52;98635.69;12195780;19;20014;-83
2022/11/21 11:26:30;;;;;;;3.67;1.30;;;;;;;10.68;90.39;98619.97;12221965;19;20479;-83
2022/11/21 11:30:36;;;;;;;9.90;1.30;;;;;;;10.63;90.20;98617.22;12197418;19;20855;-83
2022/11/21 11:34:40;;;;;;;2.42;1.20;;;;;;;10.71;90.80;98611.97;12216118;19;20086;-82
2022/11/21 11:38:54;;;;;;;5.05;1.40;;;;;;;10.85;88.40;98600.34;12214963;19;20010;-83
2022/11/21 11:48:18;;;;;;;6.40;1.60;;;;;;;11.22;89.84;98577.84;12217771;19;20011;-83
2022/11/21 11:52:24;;;;;;;10.02;2.47;;;;;;;11.57;87.26;98581.50;12195881;19;20014;-83
2022/11/21 11:56:32;;;;;;;7.40;2.25;;;;;;;11.78;84.19;98571.16;12229748;19;20010;-83
2022/11/21 12:00:46;;;;;;;5.78;2.15;;;;;;;11.63;82.03;98561.06;12205023;19;20402;-82
2022/11/21 12:04:56;;;;;;;7.95;2.97;;;;;;;11.53;81.96;98550.06;12229020;19;20011;-85
2022/11/21 12:09:09;;;;;;;6.35;2.22;;;;;;;11.71;81.98;98541.09;12228106;19;20003;-83
2022/11/21 12:13:17;;;;;;;10.65;2.30;;;;;;;12.01;80.04;98547.50;12204848;19;20356;-84
2022/11/21 12:17:25;;;;;;;4.30;1.60;;;;;;;12.22;79.77;98531.56;12226409;19;20587;-83
2022/11/21 12:21:28;;;;;;;5.25;1.95;;;;;;;12.62;80.07;98521.19;12204669;19;20010;-83
2022/11/21 12:25:52;;;;;;;5.28;1.90;;;;;;;12.82;78.54;98515.41;12226622;19;20011;-83
2022/11/21 12:30:15;;;;;;;7.55;2.10;;;;;;;13.15;77.16;98502.53;12229711;19;20393;-84
2022/11/21 12:34:29;;;;;;;6.80;1.92;;;;;;;13.09;76.56;98508.44;12201251;19;20018;-84
2022/11/21 12:38:39;;;;;;;11.50;2.10;;;;;;;12.74;75.04;98497.53;12222527;19;20006;-84
2022/11/21 12:43:16;;;;;;;8.77;2.10;;;;;;;12.31;75.66;98497.50;12201830;19;20014;-83
2022/11/21 12:57:10;;;;;;;6.63;1.60;;;;;;;11.68;76.59;98480.97;12231210;19;20432;-83
2022/11/21 13:01:26;;;;;;;6.20;2.00;;;;;;;11.93;76.71;98471.69;12204150;19;20014;-83
2022/11/21 13:05:33;;;;;;;8.65;1.63;;;;;;;12.11;75.63;98470.13;12224606;19;20022;-84
2022/11/21 13:09:47;;;;;;;6.30;1.70;;;;;;;11.95;75.59;98452.06;12203588;19;20476;-84
2022/11/21 13:13:57;;;;;;;5.45;1.63;;;;;;;11.70;75.33;98453.94;12226963;19;20010;-82
2022/11/21 13:18:15;;;;;;;3.90;1.35;;;;;;;11.39;76.33;98447.84;12229648;19;20014;-82
2022/11/21 13:22:38;;;;;;;9.43;2.15;;;;;;;11.15;78.02;98440.31;12254964;19;20010;-83
2022/11/21 13:26:42;;;;;;;5.35;1.80;;;;;;;11.02;78.15;98429.94;12272811;19;20023;-83
2022/11/21 13:30:49;;;;;;;5.97;2.45;;;;;;;10.89;78.25;98416.81;12210773;19;20017;-84
2022/11/21 13:34:52;;;;;;;5.30;1.58;;;;;;;10.69;78.65;98409.47;12227387;19;20373;-84
2022/11/21 13:38:53;;;;;;;5.22;1.52;;;;;;;10.64;79.41;98409.50;12226679;19;20019;-84
2022/11/21 13:43:15;;;;;;;4.03;1.60;;;;;;;10.61;80.75;98407.31;12203981;19;20018;-84
2022/11/21 13:47:52;;;;;;;8.38;2.30;;;;;;;10.57;81.02;98400.75;12228371;19;20056;-84
2022/11/21 13:52:05;;;;;;;7.53;1.50;;;;;;;10.53;80.83;98396.91;12205118;19;20455;-84
2022/11/21 13:56:25;;;;;;;4.20;1.63;;;;;;;10.52;81.80;98389.75;12227348;19;20064;-84
2022/11/21 14:01:04;;;;;;;7.38;2.10;;;;;;;10.50;82.37;98376.28;12204911;19;20031;-84
2022/11/21 14:05:42;;;;;;;6.10;1.95;;;;;;;10.42;82.97;98363.09;12220911;19;20017;-84
2022/11/21 14:09:49;;;;;;;6.95;1.90;;;;;;;10.36;83.88;98345.78;12203003;19;20060;-84
2022/11/21 14:13:51;;;;;;;5.78;1.70;;;;;;;10.34;84.25;98348.00;12220099;19;20002;-83
2022/11/21 14:17:57;;;;;;;5.97;1.70;;;;;;;10.38;85.33;98329.81;12223019;19;20018;-84
2022/11/21 14:21:59;;;;;;;3.88;1.38;;;;;;;10.37;86.18;98321.81;12192482;19;20054;-83
2022/11/21 14:26:12;;;;;;;5.90;1.42;;;;;;;10.35;85.87;98310.25;12244556;19;20010;-84
2022/11/21 14:30:34;;;;;;;2.33;1.30;;;;;;;10.35;86.92;98318.50;12251823;19;20039;-83
2022/11/21 14:34:35;;;;;;;4.50;1.70;;;;;;;10.25;86.64;98305.63;12222196;19;20503;-84
2022/11/21 14:38:40;;;;;;;4.53;1.58;;;;;;;10.10;87.76;98290.00;12221368;19;20027;-83
2022/11/21 14:42:42;;;;;;;5.00;1.38;;;;;;;9.90;89.02;98295.63;12196348;19;20038;-83
2022/11/21 14:46:45;;;;;;;8.98;1.48;;;;;;;9.66;89.81;98300.94;12221464;19;20027;-83
2022/11/21 14:50:48;;;;;;;4.15;1.33;;;;;;;9.48;90.17;98314.19;12223039;19;20018;-83
2022/11/21 14:54:55;;;;;;;4.28;1.40;;;;;;;9.29;91.03;98302.97;12198665;19;20517;-83
2022/11/21 14:59:24;;;;;;;6.53;1.65;;;;;;;9.12;92.58;98294.22;12219706;19;20027;-83
2022/11/21 15:03:25;;;;;;;6.32;1.80;;;;;;;8.97;93.73;98295.06;12198210;19;20014;-83
2022/11/21 15:07:34;;;;;;;7.95;2.10;;;;;;;8.81;94.58;98282.44;12217424;19;20016;-83
2022/11/21 15:12:00;;;;;;;5.72;1.70;;;;;;;8.65;95.74;98268.69;12217018;19;20010;-83
2022/11/21 15:16:03;;;;;;;5.43;1.45;;;;;;;8.47;96.18;98260.19;12196483;19;20003;-82
2022/11/21 15:20:18;;;;;;;4.20;1.35;;;;;;;8.22;97.42;98243.41;12216044;19;20021;-84
2022/11/21 15:24:38;;;;;;;6.40;1.30;;;;;;;8.05;98.44;98242.84;12191929;19;20010;-83
2022/11/21 15:28:53;;;;;;;6.70;1.38;;;;;;;7.87;99.32;98224.97;12216968;19;20015;-84
2022/11/21 15:33:18;;;;;;;5.93;1.60;;;;;;;7.68;100.00;98210.13;12214366;19;20516;-83
2022/11/21 15:37:19;;;;;;;6.40;1.80;;;;;;;7.52;100.00;98193.66;12190280;19;20006;-83
2022/11/21 15:41:29;;;;;;;3.88;1.52;;;;;;;7.41;100.00;98175.53;12213556;19;20011;-83
2022/11/21 15:45:30;;;;;;;4.53;1.45;;;;;;;7.31;100.00;98162.59;12192360;19;20481;-83
2022/11/21 15:49:32;;;;;;;5.55;1.70;;;;;;;7.27;100.00;98155.19;12215592;19;20002;-83
2022/11/21 15:53:35;;;;;;;6.88;2.05;;;;;;;7.22;100.00;98145.03;12213610;19;20017;-83
2022/11/21 15:57:37;;;;;;;11.73;4.10;;;;;;;7.18;100.00;98141.19;12194128;19;20783;-83
2022/11/21 16:01:39;;;;;;;7.22;2.13;;;;;;;7.14;100.00;98118.16;12213469;19;20264;-83
2022/11/21 16:05:40;;;;;;;7.85;2.63;;;;;;;7.08;100.00;98094.59;12212672;19;20006;-82
2022/11/21 16:09:43;;;;;;;10.45;2.20;;;;;;;7.00;100.00;98084.16;12191465;19;20040;-83
2022/11/21 16:13:57;;;;;;;8.73;2.17;;;;;;;6.99;100.00;98085.22;12211168;19;20073;-83
2022/11/21 16:17:59;;;;;;;9.32;2.20;;;;;;;6.94;100.00;98072.34;12214587;19;20340;-83
2022/11/21 16:22:00;;;;;;;9.95;2.63;;;;;;;6.90;100.00;98056.72;12188461;19;20517;-84
2022/11/21 16:26:03;;;;;;;3.37;1.90;;;;;;;6.90;100.00;98043.03;12211058;19;20459;-83
2022/11/21 16:30:05;;;;;;;7.60;2.60;;;;;;;6.85;100.00;98036.47;12229836;19;20108;-83
2022/11/21 16:34:07;;;;;;;13.15;2.25;;;;;;;6.84;100.00;98043.03;12192663;19;20082;-83
2022/11/21 16:38:10;;;;;;;7.45;2.08;;;;;;;6.80;100.00;98046.56;12212253;19;20003;-84
2022/11/21 16:42:11;;;;;;;7.95;2.13;;;;;;;6.70;100.00;98030.94;12197253;19;20670;-83
2022/11/21 16:46:14;;;;;;;8.10;3.00;;;;;;;6.62;100.00;98036.91;12224509;19;20472;-83
2022/11/21 16:50:16;;;;;;;7.03;2.20;;;;;;;6.54;100.00;98024.59;12226079;19;20018;-83
2022/11/21 16:54:17;;;;;;;8.27;1.93;;;;;;;6.46;100.00;98032.47;12200192;19;20278;-83
2022/11/21 16:58:19;;;;;;;6.47;2.47;;;;;;;6.37;100.00;98018.50;12222544;19;20367;-83
2022/11/21 17:02:21;;;;;;;4.63;2.15;;;;;;;6.33;100.00;98011.88;12228565;19;20102;-83
2022/11/21 17:06:27;;;;;;;8.40;3.00;;;;;;;6.34;100.00;98011.63;12200020;19;20002;-82
2022/11/21 17:10:29;;;;;;;4.65;2.22;;;;;;;6.32;100.00;97991.91;12223041;19;20003;-83
2022/11/21 17:14:34;;;;;;;7.32;2.40;;;;;;;6.33;100.00;97998.22;12241131;19;20022;-83
2022/11/21 17:18:36;;;;;;;11.25;2.38;;;;;;;6.34;100.00;97984.28;12217986;19;20015;-83
2022/11/21 17:22:38;;;;;;;6.17;1.97;;;;;;;6.37;100.00;97980.19;12199276;19;20006;-82
2022/11/21 17:26:40;;;;;;;6.82;2.47;;;;;;;6.41;100.00;97975.00;12221135;19;20377;-82
2022/11/21 17:30:43;;;;;;;9.88;3.10;;;;;;;6.44;100.00;97983.50;12220867;19;20477;-83
2022/11/21 17:34:44;;;;;;;10.52;4.72;;;;;;;6.50;100.00;97967.91;12198190;19;20017;-83
2022/11/21 17:38:49;;;;;;;13.38;4.95;;;;;;;6.51;100.00;97953.94;12221960;19;20010;-82
2022/11/21 17:42:50;;;;;;;7.32;2.78;;;;;;;6.52;100.00;97950.16;12196973;19;20115;-82
2022/11/21 17:46:52;;;;;;;11.00;2.70;;;;;;;6.57;100.00;97960.25;12219932;19;20014;-82
2022/11/21 17:51:12;;;;;;;10.30;2.55;;;;;;;6.66;100.00;97964.13;12218984;19;20031;-83
2022/11/21 17:55:14;;;;;;;8.73;3.60;;;;;;;6.72;100.00;97967.69;12195409;19;20010;-82
2022/11/21 17:59:16;;;;;;;6.38;2.50;;;;;;;6.76;100.00;97961.44;12224013;19;20572;-83
2022/11/21 18:03:17;;;;;;;7.03;2.13;;;;;;;6.78;100.00;97956.50;12219316;19;20082;-82
2022/11/21 18:07:19;;;;;;;14.93;6.10;;;;;;;6.81;100.00;97923.13;12197023;19;20372;-82
2022/11/21 18:11:21;;;;;;;10.85;3.03;;;;;;;6.83;100.00;97963.91;12219881;19;20007;-82
2022/11/21 18:15:22;;;;;;;9.63;2.13;;;;;;;6.91;100.00;97943.38;12215298;19;20010;-82
2022/11/21 18:19:24;;;;;;;7.90;3.25;;;;;;;6.99;100.00;97948.31;12195255;19;20059;-82
2022/11/21 18:23:28;;;;;;;11.18;2.60;;;;;;;7.03;100.00;97955.72;12217306;19;20029;-83
2022/11/21 18:27:30;;;;;;;8.20;2.10;;;;;;;7.05;100.00;97944.50;12218563;19;20002;-83
2022/11/21 18:31:33;;;;;;;11.38;2.55;;;;;;;7.09;100.00;97937.38;12200982;19;20265;-84
2022/11/21 18:35:35;;;;;;;14.35;2.58;;;;;;;7.11;100.00;97937.09;12217791;19;20852;-82
2022/11/21 18:39:36;;;;;;;3.20;1.73;;;;;;;7.09;100.00;97923.69;12217478;19;20423;-83
2022/11/21 18:43:39;;;;;;;20.98;6.88;;;;;;;7.08;100.00;97928.34;12198584;19;20267;-83
2022/11/21 18:47:41;;;;;;;10.52;3.95;;;;;;;7.10;100.00;97925.31;12222298;19;20011;-83
2022/11/21 18:51:43;;;;;;;12.07;3.05;;;;;;;7.13;100.00;97941.19;12218019;19;20013;-83
2022/11/21 18:55:44;;;;;;;51.58;20.85;;;;;;;7.16;100.00;97953.53;12195083;19;20074;-83
2022/11/21 18:59:46;;;;;;;10.60;5.38;;;;;;;7.17;100.00;97966.97;12218266;19;20026;-82
2022/11/21 19:03:49;;;;;;;5.70;2.30;;;;;;;7.23;100.00;97962.31;12214797;19;20002;-82
2022/11/21 19:07:51;;;;;;;8.93;1.92;;;;;;;7.27;100.00;97952.44;12196827;19;20002;-83
2022/11/21 19:11:55;;;;;;;8.52;1.88;;;;;;;7.33;100.00;97959.56;12217281;19;20019;-83
2022/11/21 19:16:00;;;;;;;6.30;1.70;;;;;;;7.38;100.00;97947.81;12196668;19;20014;-83
2022/11/21 19:20:04;;;;;;;8.15;2.03;;;;;;;7.42;100.00;97935.19;12214994;19;20007;-83
2022/11/21 19:24:06;;;;;;;4.40;1.85;;;;;;;7.44;100.00;97928.34;12255367;19;20022;-82
2022/11/21 19:28:08;;;;;;;5.07;1.98;;;;;;;7.45;100.00;97915.44;12234214;19;20017;-84
2022/11/21 19:32:09;;;;;;;15.13;5.63;;;;;;;7.42;100.00;97894.09;12222941;19;20094;-84